| time (UTC) | temp F | wind direction | speed knots | gust knots | rain 1hr in | rain 24hr in | rain mn in | humidity % | barometer mb |
| 20260508213053 | 77 | 225 | 4.3 | 10.4 | 0.00 | 0.00 | 0.00 | 18 | 1014.9 |
| 20260508211555 | 77 | 265 | 0.9 | 6.1 | 0.00 | 0.00 | 0.00 | 20 | 1015.0 |
| 20260508210055 | 77 | 0 | 0.9 | 5.2 | 0.00 | 0.00 | 0.00 | 20 | 1015.0 |
| 20260508204555 | 76 | 281 | 0.9 | 4.3 | 0.00 | 0.00 | 0.00 | 24 | 1015.2 |
| 20260508203108 | 76 | 297 | 1.7 | 7.0 | 0.00 | 0.00 | 0.00 | 21 | 1015.4 |
| 20260508201605 | 76 | 263 | 3.5 | 10.4 | 0.00 | 0.00 | 0.00 | 19 | 1015.8 |
| 20260508200057 | 75 | 177 | 2.6 | 7.8 | 0.00 | 0.00 | 0.00 | 21 | 1015.8 |
| 20260508194559 | 74 | 45 | 1.7 | 4.3 | 0.00 | 0.00 | 0.00 | 21 | 1015.8 |
| 20260508193102 | 74 | 0 | 1.7 | 7.8 | 0.00 | 0.00 | 0.00 | 19 | 1016.0 |
| 20260508191600 | 74 | 271 | 2.6 | 6.1 | 0.00 | 0.00 | 0.00 | 20 | 1016.0 |
| 20260508190056 | 74 | 269 | 0.9 | 5.2 | 0.00 | 0.00 | 0.00 | 22 | 1016.1 |
| 20260508184556 | 74 | 249 | 2.6 | 5.2 | 0.00 | 0.00 | 0.00 | 24 | 1016.1 |
| 20260508183056 | 74 | 0 | 0.9 | 9.6 | 0.00 | 0.00 | 0.00 | 27 | 1016.3 |
| 20260508181557 | 74 | 160 | 0.9 | 4.3 | 0.00 | 0.00 | 0.00 | 26 | 1016.3 |
| 20260508180059 | 74 | 173 | 1.7 | 6.1 | 0.00 | 0.00 | 0.00 | 23 | 1016.4 |
| 20260508174559 | 74 | 223 | 0.0 | 6.1 | 0.00 | 0.00 | 0.00 | 24 | 1016.6 |
| 20260508173054 | 73 | 140 | 0.9 | 3.5 | 0.00 | 0.00 | 0.00 | 25 | 1016.6 |
| 20260508171557 | 71 | 0 | 0.0 | 1.7 | 0.00 | 0.00 | 0.00 | 24 | 1016.6 |
| 20260508170052 | 70 | 258 | 0.0 | 5.2 | 0.00 | 0.00 | 0.00 | 23 | 1016.7 |
| 20260508164555 | 70 | 217 | 0.0 | 4.3 | 0.00 | 0.00 | 0.00 | 30 | 1016.7 |
| 20260508163054 | 69 | 184 | 0.9 | 4.3 | 0.00 | 0.00 | 0.00 | 29 | 1016.6 |
| 20260508161559 | 68 | 0 | 0.0 | 1.7 | 0.00 | 0.00 | 0.00 | 32 | 1016.4 |
| 20260508160058 | 67 | 0 | 0.0 | 3.5 | 0.00 | 0.00 | 0.00 | 35 | 1016.4 |
| 20260508154610 | 65 | 96 | 0.0 | 2.6 | 0.00 | 0.00 | 0.00 | 38 | 1016.6 |
| 20260508153059 | 63 | 187 | 0.0 | 1.7 | 0.00 | 0.00 | 0.00 | 41 | 1016.6 |
| 20260508151600 | 61 | 0 | 0.0 | 2.6 | 0.00 | 0.00 | 0.00 | 49 | 1016.5 |
| 20260508150110 | 58 | 0 | 0.0 | 0.9 | 0.00 | 0.00 | 0.00 | 55 | 1016.4 |
| 20260508144557 | 55 | 0 | 0.0 | 1.7 | 0.00 | 0.00 | 0.00 | 62 | 1016.3 |
| 20260508143135 | 52 | 0 | 0.9 | 2.6 | 0.00 | 0.00 | 0.00 | 66 | 1016.3 |
| 20260508141605 | 50 | 0 | 0.0 | 3.5 | 0.00 | 0.00 | 0.00 | 71 | 1016.3 |
| 20260508140110 | 48 | 0 | 0.0 | 0.0 | 0.00 | 0.00 | 0.00 | 73 | 1016.0 |
| 20260508134635 | 46 | 0 | 0.0 | 0.0 | 0.00 | 0.00 | 0.00 | 73 | 1015.7 |
| 20260508133107 | 45 | 0 | 0.0 | 0.0 | 0.00 | 0.00 | 0.00 | 73 | 1015.8 |
| 20260508131602 | 45 | 0 | 0.0 | 0.9 | 0.00 | 0.00 | 0.00 | 72 | 1015.5 |
| 20260508124558 | 44 | 0 | 0.0 | 3.5 | 0.00 | 0.00 | 0.00 | 70 | 1015.1 |
| 20260508123054 | 44 | 0 | 0.0 | 0.0 | 0.00 | 0.00 | 0.00 | 69 | 1014.9 |
| 20260508121552 | 45 | 0 | 0.0 | 0.0 | 0.00 | 0.00 | 0.00 | 69 | 1014.9 |
| 20260508120100 | 45 | 0 | 0.0 | 1.7 | 0.00 | 0.00 | 0.00 | 69 | 1014.7 |
| 20260508114552 | 46 | 0 | 0.0 | 0.0 | 0.00 | 0.00 | 0.00 | 69 | 1014.6 |
| 20260508113055 | 46 | 0 | 0.0 | 0.0 | 0.00 | 0.00 | 0.00 | 69 | 1014.5 |
| 20260508111600 | 46 | 0 | 0.0 | 0.0 | 0.00 | 0.00 | 0.00 | 69 | 1014.5 |
| 20260508104555 | 46 | 0 | 0.0 | 0.0 | 0.00 | 0.00 | 0.00 | 70 | 1014.2 |
| 20260508103104 | 46 | 0 | 0.0 | 0.0 | 0.00 | 0.00 | 0.00 | 70 | 1014.3 |
| 20260508101557 | 46 | 0 | 0.0 | 0.0 | 0.00 | 0.00 | 0.00 | 69 | 1014.2 |
| 20260508100056 | 46 | 0 | 0.0 | 0.0 | 0.00 | 0.00 | 0.00 | 69 | 1014.0 |
| 20260508094559 | 46 | 0 | 0.0 | 0.0 | 0.00 | 0.00 | 0.00 | 68 | 1014.0 |
| 20260508093104 | 46 | 0 | 0.0 | 0.9 | 0.00 | 0.00 | 0.00 | 67 | 1014.0 |
| 20260508091610 | 47 | 0 | 0.0 | 0.0 | 0.00 | 0.00 | 0.00 | 66 | 1014.1 |
| 20260508090104 | 47 | 0 | 0.0 | 0.0 | 0.00 | 0.00 | 0.00 | 66 | 1014.0 |
| 20260508084613 | 47 | 0 | 0.0 | 0.9 | 0.00 | 0.00 | 0.00 | 65 | 1014.1 |
| 20260508083108 | 48 | 0 | 0.0 | 1.7 | 0.00 | 0.00 | 0.00 | 64 | 1014.1 |
| 20260508081556 | 48 | 0 | 0.0 | 0.0 | 0.00 | 0.00 | 0.00 | 63 | 1014.1 |
| 20260508080107 | 49 | 0 | 0.0 | 0.0 | 0.00 | 0.00 | 0.00 | 63 | 1014.2 |
| 20260508074609 | 49 | 0 | 0.0 | 0.0 | 0.00 | 0.00 | 0.00 | 62 | 1014.1 |
| 20260508073059 | 49 | 0 | 0.0 | 0.0 | 0.00 | 0.00 | 0.00 | 61 | 1013.9 |
| 20260508071555 | 50 | 0 | 0.0 | 0.9 | 0.00 | 0.00 | 0.00 | 60 | 1014.0 |
| 20260508070056 | 50 | 0 | 0.0 | 0.9 | 0.00 | 0.00 | 0.00 | 59 | 1014.0 |
| 20260508064559 | 51 | 0 | 0.0 | 0.0 | 0.00 | 0.00 | 0.00 | 58 | 1013.9 |
| 20260508063055 | 52 | 0 | 0.0 | 0.0 | 0.00 | 0.00 | 0.00 | 57 | 1013.8 |
| 20260508061555 | 52 | 0 | 0.0 | 0.0 | 0.00 | 0.00 | 0.00 | 56 | 1013.7 |
| 20260508060100 | 53 | 0 | 0.0 | 0.0 | 0.00 | 0.00 | 0.00 | 55 | 1013.7 |
| 20260508054558 | 54 | 0 | 0.0 | 0.0 | 0.00 | 0.00 | 0.00 | 53 | 1013.6 |
| 20260508053101 | 55 | 0 | 0.0 | 0.0 | 0.00 | 0.00 | 0.00 | 51 | 1013.7 |
| 20260508051610 | 56 | 0 | 0.0 | 0.0 | 0.00 | 0.00 | 0.00 | 47 | 1013.7 |
| 20260508050103 | 58 | 0 | 0.0 | 0.0 | 0.00 | 0.00 | 0.00 | 46 | 1013.6 |
| 20260508044556 | 58 | 0 | 0.0 | 0.0 | 0.00 | 0.00 | 0.00 | 46 | 1013.5 |
| 20260508043108 | 59 | 0 | 0.0 | 0.9 | 0.00 | 0.00 | 0.00 | 43 | 1013.4 |
| 20260508041558 | 59 | 0 | 0.0 | 0.0 | 0.00 | 0.00 | 0.00 | 43 | 1013.5 |
| 20260508040101 | 60 | 0 | 0.0 | 0.9 | 0.00 | 0.00 | 0.00 | 43 | 1013.2 |
| 20260508034552 | 61 | 0 | 0.0 | 0.0 | 0.00 | 0.00 | 0.00 | 42 | 1013.2 |
| 20260508033053 | 62 | 0 | 0.0 | 0.0 | 0.00 | 0.00 | 0.00 | 40 | 1012.9 |
| 20260508031552 | 64 | 0 | 0.0 | 0.9 | 0.00 | 0.00 | 0.00 | 38 | 1012.7 |
| 20260508030057 | 66 | 0 | 0.0 | 0.0 | 0.00 | 0.00 | 0.00 | 31 | 1012.3 |
| 20260508024551 | 68 | 0 | 0.0 | 0.0 | 0.00 | 0.00 | 0.00 | 30 | 1012.2 |
| 20260508023053 | 71 | 0 | 0.0 | 0.0 | 0.00 | 0.00 | 0.00 | 27 | 1012.2 |
| 20260508021554 | 73 | 0 | 0.0 | 0.0 | 0.00 | 0.00 | 0.00 | 26 | 1012.2 |
| 20260508020101 | 73 | 0 | 0.0 | 0.0 | 0.00 | 0.00 | 0.00 | 25 | 1012.1 |
| 20260508014554 | 74 | 0 | 0.0 | 0.9 | 0.00 | 0.00 | 0.00 | 23 | 1012.1 |
| 20260508013054 | 75 | 0 | 0.0 | 2.6 | 0.00 | 0.00 | 0.00 | 21 | 1012.3 |
| 20260508011551 | 76 | 0 | 0.0 | 2.6 | 0.00 | 0.00 | 0.00 | 21 | 1012.4 |
| 20260508010053 | 76 | 187 | 0.0 | 4.3 | 0.00 | 0.00 | 0.00 | 21 | 1012.3 |
| 20260508004555 | 75 | 0 | 0.9 | 8.7 | 0.00 | 0.00 | 0.00 | 21 | 1012.5 |
| 20260508003055 | 76 | 0 | 1.7 | 7.0 | 0.00 | 0.00 | 0.00 | 21 | 1012.5 |
| 20260508001554 | 76 | 193 | 2.6 | 7.0 | 0.00 | 0.00 | 0.00 | 20 | 1012.7 |
| 20260508000058 | 77 | 194 | 1.7 | 6.1 | 0.00 | 0.00 | 0.00 | 20 | 1012.4 |
| 20260507234558 | 78 | 0 | 0.0 | 2.6 | 0.00 | 0.00 | 0.00 | 20 | 1012.8 |
| 20260507233115 | 77 | 0 | 0.0 | 8.7 | 0.00 | 0.00 | 0.00 | 22 | 1013.2 |
| 20260507231600 | 76 | 155 | 0.9 | 4.3 | 0.00 | 0.00 | 0.00 | 23 | 1013.3 |
| 20260507230052 | 75 | 167 | 0.0 | 3.5 | 0.00 | 0.00 | 0.00 | 24 | 1013.4 |
| 20260507224552 | 74 | 198 | 0.9 | 5.2 | 0.00 | 0.00 | 0.00 | 23 | 1013.8 |
| 20260507223105 | 73 | 206 | 1.7 | 5.2 | 0.00 | 0.00 | 0.00 | 22 | 1014.1 |
| 20260507221553 | 72 | 0 | 0.0 | 2.6 | 0.00 | 0.00 | 0.00 | 28 | 1014.3 |
| 20260507220051 | 72 | 0 | 0.0 | 2.6 | 0.00 | 0.00 | 0.00 | 25 | 1014.4 |
| 20260507214550 | 72 | 0 | 0.0 | 1.7 | 0.00 | 0.00 | 0.00 | 23 | 1014.6 |